sensor_id;sensor_type;location;lat;lon;timestamp;P1;durP1;ratioP1;P2;durP2;ratioP2
50379;SDS011;37474;59.468;18.040;2022-11-18T00:02:01;9.30;;;3.83;;
50379;SDS011;37474;59.468;18.040;2022-11-18T00:04:29;8.50;;;3.95;;
50379;SDS011;37474;59.468;18.040;2022-11-18T00:06:58;8.35;;;3.45;;
50379;SDS011;37474;59.468;18.040;2022-11-18T00:09:29;7.57;;;3.50;;
50379;SDS011;37474;59.468;18.040;2022-11-18T00:11:58;8.70;;;3.58;;
50379;SDS011;37474;59.468;18.040;2022-11-18T00:14:48;7.10;;;3.60;;
50379;SDS011;37474;59.468;18.040;2022-11-18T00:17:15;6.60;;;3.80;;
50379;SDS011;37474;59.468;18.040;2022-11-18T00:19:43;8.63;;;3.67;;
50379;SDS011;37474;59.468;18.040;2022-11-18T00:22:15;7.32;;;3.65;;
50379;SDS011;37474;59.468;18.040;2022-11-18T00:24:43;7.15;;;3.65;;
50379;SDS011;37474;59.468;18.040;2022-11-18T00:27:12;8.57;;;3.93;;
50379;SDS011;37474;59.468;18.040;2022-11-18T00:29:44;6.60;;;3.40;;
50379;SDS011;37474;59.468;18.040;2022-11-18T00:32:12;7.38;;;3.70;;
50379;SDS011;37474;59.468;18.040;2022-11-18T00:34:39;6.17;;;3.20;;
50379;SDS011;37474;59.468;18.040;2022-11-18T00:37:10;6.93;;;3.20;;
50379;SDS011;37474;59.468;18.040;2022-11-18T00:39:38;6.70;;;3.40;;
50379;SDS011;37474;59.468;18.040;2022-11-18T00:42:06;6.37;;;3.70;;
50379;SDS011;37474;59.468;18.040;2022-11-18T00:44:56;6.63;;;3.20;;
50379;SDS011;37474;59.468;18.040;2022-11-18T00:47:24;9.07;;;3.67;;
50379;SDS011;37474;59.468;18.040;2022-11-18T00:49:52;8.03;;;3.47;;
50379;SDS011;37474;59.468;18.040;2022-11-18T00:52:24;9.18;;;3.03;;
50379;SDS011;37474;59.468;18.040;2022-11-18T00:54:52;8.10;;;3.17;;
50379;SDS011;37474;59.468;18.040;2022-11-18T00:57:20;7.60;;;3.47;;
50379;SDS011;37474;59.468;18.040;2022-11-18T00:59:51;6.38;;;3.10;;
50379;SDS011;37474;59.468;18.040;2022-11-18T01:02:21;8.57;;;3.20;;
50379;SDS011;37474;59.468;18.040;2022-11-18T01:04:48;7.73;;;3.33;;
50379;SDS011;37474;59.468;18.040;2022-11-18T01:07:20;6.55;;;3.20;;
50379;SDS011;37474;59.468;18.040;2022-11-18T01:09:48;7.88;;;3.38;;
50379;SDS011;37474;59.468;18.040;2022-11-18T01:12:16;7.10;;;3.57;;
50379;SDS011;37474;59.468;18.040;2022-11-18T01:15:03;5.70;;;3.17;;
50379;SDS011;37474;59.468;18.040;2022-11-18T01:17:33;7.23;;;3.00;;
50379;SDS011;37474;59.468;18.040;2022-11-18T01:20:01;5.93;;;3.27;;
50379;SDS011;37474;59.468;18.040;2022-11-18T01:22:33;5.32;;;2.80;;
50379;SDS011;37474;59.468;18.040;2022-11-18T01:25:00;6.38;;;3.00;;
50379;SDS011;37474;59.468;18.040;2022-11-18T01:27:28;8.77;;;2.87;;
50379;SDS011;37474;59.468;18.040;2022-11-18T01:30:01;6.83;;;3.03;;
50379;SDS011;37474;59.468;18.040;2022-11-18T01:32:29;4.30;;;2.67;;
50379;SDS011;37474;59.468;18.040;2022-11-18T01:34:58;7.33;;;3.13;;
50379;SDS011;37474;59.468;18.040;2022-11-18T01:37:29;5.70;;;2.83;;
50379;SDS011;37474;59.468;18.040;2022-11-18T01:39:58;8.57;;;2.80;;
50379;SDS011;37474;59.468;18.040;2022-11-18T01:42:26;5.50;;;3.00;;
50379;SDS011;37474;59.468;18.040;2022-11-18T01:45:00;6.07;;;2.95;;
50379;SDS011;37474;59.468;18.040;2022-11-18T01:47:36;9.20;;;2.88;;
50379;SDS011;37474;59.468;18.040;2022-11-18T01:50:11;6.03;;;2.90;;
50379;SDS011;37474;59.468;18.040;2022-11-18T01:52:41;8.23;;;3.03;;
50379;SDS011;37474;59.468;18.040;2022-11-18T01:55:17;5.00;;;2.80;;
50379;SDS011;37474;59.468;18.040;2022-11-18T01:57:50;5.77;;;2.40;;
50379;SDS011;37474;59.468;18.040;2022-11-18T02:00:25;5.57;;;2.43;;
50379;SDS011;37474;59.468;18.040;2022-11-18T02:02:53;5.45;;;2.80;;
50379;SDS011;37474;59.468;18.040;2022-11-18T02:05:24;5.27;;;2.70;;
50379;SDS011;37474;59.468;18.040;2022-11-18T02:07:56;4.90;;;2.83;;
50379;SDS011;37474;59.468;18.040;2022-11-18T02:10:24;4.72;;;2.63;;
50379;SDS011;37474;59.468;18.040;2022-11-18T02:12:52;7.13;;;2.80;;
50379;SDS011;37474;59.468;18.040;2022-11-18T02:15:31;6.30;;;2.70;;
50379;SDS011;37474;59.468;18.040;2022-11-18T02:18:11;5.70;;;2.87;;
50379;SDS011;37474;59.468;18.040;2022-11-18T02:20:49;5.90;;;2.57;;
50379;SDS011;37474;59.468;18.040;2022-11-18T02:29:24;6.17;;;2.67;;
50379;SDS011;37474;59.468;18.040;2022-11-18T02:31:59;7.37;;;3.00;;
50379;SDS011;37474;59.468;18.040;2022-11-18T02:34:34;7.57;;;3.00;;
50379;SDS011;37474;59.468;18.040;2022-11-18T02:37:16;6.30;;;3.13;;
50379;SDS011;37474;59.468;18.040;2022-11-18T02:39:51;4.53;;;2.70;;
50379;SDS011;37474;59.468;18.040;2022-11-18T02:42:27;4.40;;;2.83;;
50379;SDS011;37474;59.468;18.040;2022-11-18T02:44:59;3.83;;;2.67;;
50379;SDS011;37474;59.468;18.040;2022-11-18T02:47:36;6.67;;;2.77;;
50379;SDS011;37474;59.468;18.040;2022-11-18T02:50:06;5.83;;;3.00;;
50379;SDS011;37474;59.468;18.040;2022-11-18T02:52:39;5.70;;;2.70;;
50379;SDS011;37474;59.468;18.040;2022-11-18T02:55:12;5.77;;;2.70;;
50379;SDS011;37474;59.468;18.040;2022-11-18T02:57:45;5.37;;;2.60;;
50379;SDS011;37474;59.468;18.040;2022-11-18T03:02:49;5.83;;;2.53;;
50379;SDS011;37474;59.468;18.040;2022-11-18T03:05:20;7.37;;;2.40;;
50379;SDS011;37474;59.468;18.040;2022-11-18T03:07:55;5.37;;;2.30;;
50379;SDS011;37474;59.468;18.040;2022-11-18T03:10:31;3.70;;;2.07;;
50379;SDS011;37474;59.468;18.040;2022-11-18T03:13:13;5.82;;;2.65;;
50379;SDS011;37474;59.468;18.040;2022-11-18T03:15:49;8.07;;;1.87;;
50379;SDS011;37474;59.468;18.040;2022-11-18T03:18:30;5.50;;;2.28;;
50379;SDS011;37474;59.468;18.040;2022-11-18T03:21:05;3.90;;;2.30;;
50379;SDS011;37474;59.468;18.040;2022-11-18T03:23:40;5.10;;;2.23;;
50379;SDS011;37474;59.468;18.040;2022-11-18T03:26:11;5.87;;;2.10;;
50379;SDS011;37474;59.468;18.040;2022-11-18T03:28:47;6.23;;;2.33;;
50379;SDS011;37474;59.468;18.040;2022-11-18T03:31:23;6.63;;;2.37;;
50379;SDS011;37474;59.468;18.040;2022-11-18T03:33:57;5.93;;;2.63;;
50379;SDS011;37474;59.468;18.040;2022-11-18T03:36:31;5.20;;;2.13;;
50379;SDS011;37474;59.468;18.040;2022-11-18T03:39:04;4.37;;;2.33;;
50379;SDS011;37474;59.468;18.040;2022-11-18T03:41:35;5.60;;;2.50;;
50379;SDS011;37474;59.468;18.040;2022-11-18T03:44:09;5.10;;;2.47;;
50379;SDS011;37474;59.468;18.040;2022-11-18T03:46:42;4.93;;;2.20;;
50379;SDS011;37474;59.468;18.040;2022-11-18T03:49:16;6.30;;;2.50;;
50379;SDS011;37474;59.468;18.040;2022-11-18T03:51:49;4.53;;;2.20;;
50379;SDS011;37474;59.468;18.040;2022-11-18T03:54:23;4.33;;;1.83;;
50379;SDS011;37474;59.468;18.040;2022-11-18T03:56:58;5.23;;;1.97;;
50379;SDS011;37474;59.468;18.040;2022-11-18T03:59:34;6.23;;;2.40;;
50379;SDS011;37474;59.468;18.040;2022-11-18T04:02:09;6.27;;;2.00;;
50379;SDS011;37474;59.468;18.040;2022-11-18T04:04:42;4.60;;;1.77;;
50379;SDS011;37474;59.468;18.040;2022-11-18T04:07:15;4.97;;;1.90;;
50379;SDS011;37474;59.468;18.040;2022-11-18T04:09:53;4.95;;;1.63;;
50379;SDS011;37474;59.468;18.040;2022-11-18T04:12:26;3.20;;;1.60;;
50379;SDS011;37474;59.468;18.040;2022-11-18T04:15:00;7.33;;;1.97;;
50379;SDS011;37474;59.468;18.040;2022-11-18T04:17:31;7.33;;;1.70;;
50379;SDS011;37474;59.468;18.040;2022-11-18T04:19:58;4.70;;;2.30;;
50379;SDS011;37474;59.468;18.040;2022-11-18T04:22:30;4.25;;;2.10;;
50379;SDS011;37474;59.468;18.040;2022-11-18T04:24:58;6.82;;;2.58;;
50379;SDS011;37474;59.468;18.040;2022-11-18T04:27:26;6.80;;;2.20;;
50379;SDS011;37474;59.468;18.040;2022-11-18T04:29:58;8.02;;;1.63;;
50379;SDS011;37474;59.468;18.040;2022-11-18T04:32:25;3.70;;;1.85;;
50379;SDS011;37474;59.468;18.040;2022-11-18T04:34:55;6.77;;;2.00;;
50379;SDS011;37474;59.468;18.040;2022-11-18T04:37:27;4.30;;;1.67;;
50379;SDS011;37474;59.468;18.040;2022-11-18T04:39:56;2.77;;;1.70;;
50379;SDS011;37474;59.468;18.040;2022-11-18T04:42:24;7.33;;;2.40;;
50379;SDS011;37474;59.468;18.040;2022-11-18T04:44:54;7.13;;;2.20;;
50379;SDS011;37474;59.468;18.040;2022-11-18T04:47:24;3.97;;;1.53;;
50379;SDS011;37474;59.468;18.040;2022-11-18T04:49:52;4.43;;;1.87;;
50379;SDS011;37474;59.468;18.040;2022-11-18T04:52:23;3.50;;;2.10;;
50379;SDS011;37474;59.468;18.040;2022-11-18T04:54:52;6.93;;;1.90;;
50379;SDS011;37474;59.468;18.040;2022-11-18T04:57:20;7.00;;;1.87;;
50379;SDS011;37474;59.468;18.040;2022-11-18T04:59:48;4.70;;;1.80;;
50379;SDS011;37474;59.468;18.040;2022-11-18T05:02:18;3.13;;;1.58;;
50379;SDS011;37474;59.468;18.040;2022-11-18T05:04:46;4.50;;;1.73;;
50379;SDS011;37474;59.468;18.040;2022-11-18T05:07:17;4.00;;;1.58;;
50379;SDS011;37474;59.468;18.040;2022-11-18T05:09:49;3.67;;;1.67;;
50379;SDS011;37474;59.468;18.040;2022-11-18T05:12:17;2.77;;;1.67;;
50379;SDS011;37474;59.468;18.040;2022-11-18T05:15:06;4.50;;;1.50;;
50379;SDS011;37474;59.468;18.040;2022-11-18T05:17:34;5.82;;;1.73;;
50379;SDS011;37474;59.468;18.040;2022-11-18T05:20:02;6.33;;;1.70;;
50379;SDS011;37474;59.468;18.040;2022-11-18T05:22:34;4.85;;;1.80;;
50379;SDS011;37474;59.468;18.040;2022-11-18T05:25:04;4.32;;;1.95;;
50379;SDS011;37474;59.468;18.040;2022-11-18T05:27:32;3.17;;;1.92;;
50379;SDS011;37474;59.468;18.040;2022-11-18T05:30:04;6.57;;;2.38;;
50379;SDS011;37474;59.468;18.040;2022-11-18T05:32:33;5.33;;;2.10;;
50379;SDS011;37474;59.468;18.040;2022-11-18T05:35:00;5.27;;;1.80;;
50379;SDS011;37474;59.468;18.040;2022-11-18T05:37:30;6.03;;;2.13;;
50379;SDS011;37474;59.468;18.040;2022-11-18T05:39:58;5.67;;;1.93;;
50379;SDS011;37474;59.468;18.040;2022-11-18T05:42:28;4.10;;;1.50;;
50379;SDS011;37474;59.468;18.040;2022-11-18T05:45:17;5.17;;;2.37;;
50379;SDS011;37474;59.468;18.040;2022-11-18T05:50:34;10.70;;;2.20;;
50379;SDS011;37474;59.468;18.040;2022-11-18T05:53:04;3.37;;;1.70;;
50379;SDS011;37474;59.468;18.040;2022-11-18T05:55:37;4.85;;;1.45;;
50379;SDS011;37474;59.468;18.040;2022-11-18T05:58:12;3.40;;;1.73;;
50379;SDS011;37474;59.468;18.040;2022-11-18T06:00:42;8.07;;;2.00;;
50379;SDS011;37474;59.468;18.040;2022-11-18T06:03:12;4.85;;;1.75;;
50379;SDS011;37474;59.468;18.040;2022-11-18T06:05:57;8.10;;;2.10;;
50379;SDS011;37474;59.468;18.040;2022-11-18T06:08:29;7.13;;;1.93;;
50379;SDS011;37474;59.468;18.040;2022-11-18T06:11:04;3.70;;;1.70;;
50379;SDS011;37474;59.468;18.040;2022-11-18T06:13:37;2.50;;;1.50;;
50379;SDS011;37474;59.468;18.040;2022-11-18T06:16:13;5.83;;;1.93;;
50379;SDS011;37474;59.468;18.040;2022-11-18T06:18:41;5.07;;;1.90;;
50379;SDS011;37474;59.468;18.040;2022-11-18T06:21:08;3.97;;;1.73;;
50379;SDS011;37474;59.468;18.040;2022-11-18T06:23:39;5.10;;;1.70;;
50379;SDS011;37474;59.468;18.040;2022-11-18T06:26:09;6.27;;;2.00;;
50379;SDS011;37474;59.468;18.040;2022-11-18T06:28:45;5.63;;;1.90;;
50379;SDS011;37474;59.468;18.040;2022-11-18T06:31:16;6.57;;;2.40;;
50379;SDS011;37474;59.468;18.040;2022-11-18T06:33:44;4.85;;;2.35;;
50379;SDS011;37474;59.468;18.040;2022-11-18T06:36:14;5.28;;;2.22;;
50379;SDS011;37474;59.468;18.040;2022-11-18T06:38:42;5.80;;;2.37;;
50379;SDS011;37474;59.468;18.040;2022-11-18T06:41:12;4.67;;;2.00;;
50379;SDS011;37474;59.468;18.040;2022-11-18T06:43:42;4.07;;;2.00;;
50379;SDS011;37474;59.468;18.040;2022-11-18T06:46:10;5.47;;;2.40;;
50379;SDS011;37474;59.468;18.040;2022-11-18T06:49:01;4.28;;;2.30;;
50379;SDS011;37474;59.468;18.040;2022-11-18T06:53:57;5.27;;;1.83;;
50379;SDS011;37474;59.468;18.040;2022-11-18T06:56:36;3.43;;;1.77;;
50379;SDS011;37474;59.468;18.040;2022-11-18T06:59:04;6.57;;;2.10;;
50379;SDS011;37474;59.468;18.040;2022-11-18T07:01:35;5.80;;;1.90;;
50379;SDS011;37474;59.468;18.040;2022-11-18T07:04:06;4.63;;;2.33;;
50379;SDS011;37474;59.468;18.040;2022-11-18T07:06:36;7.93;;;2.10;;
50379;SDS011;37474;59.468;18.040;2022-11-18T07:09:05;5.80;;;1.90;;
50379;SDS011;37474;59.468;18.040;2022-11-18T07:11:35;4.33;;;1.97;;
50379;SDS011;37474;59.468;18.040;2022-11-18T07:14:08;5.23;;;2.23;;
50379;SDS011;37474;59.468;18.040;2022-11-18T07:16:40;6.40;;;2.33;;
50379;SDS011;37474;59.468;18.040;2022-11-18T07:19:08;6.77;;;2.53;;
50379;SDS011;37474;59.468;18.040;2022-11-18T07:21:37;6.03;;;2.37;;
50379;SDS011;37474;59.468;18.040;2022-11-18T07:24:07;3.77;;;2.20;;
50379;SDS011;37474;59.468;18.040;2022-11-18T07:26:40;3.10;;;2.20;;
50379;SDS011;37474;59.468;18.040;2022-11-18T07:29:10;4.80;;;2.30;;
50379;SDS011;37474;59.468;18.040;2022-11-18T07:31:40;4.73;;;1.80;;
50379;SDS011;37474;59.468;18.040;2022-11-18T07:34:07;6.77;;;2.20;;
50379;SDS011;37474;59.468;18.040;2022-11-18T07:36:37;5.43;;;1.75;;
50379;SDS011;37474;59.468;18.040;2022-11-18T07:39:05;3.40;;;1.77;;
50379;SDS011;37474;59.468;18.040;2022-11-18T07:41:34;5.87;;;1.90;;
50379;SDS011;37474;59.468;18.040;2022-11-18T07:44:04;3.30;;;1.70;;
50379;SDS011;37474;59.468;18.040;2022-11-18T07:46:33;3.37;;;1.70;;
50379;SDS011;37474;59.468;18.040;2022-11-18T07:49:04;3.17;;;1.90;;
50379;SDS011;37474;59.468;18.040;2022-11-18T07:51:36;4.93;;;1.53;;
50379;SDS011;37474;59.468;18.040;2022-11-18T07:54:07;2.13;;;1.40;;
50379;SDS011;37474;59.468;18.040;2022-11-18T07:56:36;4.60;;;1.83;;
50379;SDS011;37474;59.468;18.040;2022-11-18T07:59:09;3.27;;;1.40;;
50379;SDS011;37474;59.468;18.040;2022-11-18T08:01:36;3.23;;;1.60;;
50379;SDS011;37474;59.468;18.040;2022-11-18T08:04:06;4.30;;;1.50;;
50379;SDS011;37474;59.468;18.040;2022-11-18T08:06:39;3.77;;;1.30;;
50379;SDS011;37474;59.468;18.040;2022-11-18T08:09:08;5.57;;;1.45;;
50379;SDS011;37474;59.468;18.040;2022-11-18T08:11:36;3.63;;;1.53;;
50379;SDS011;37474;59.468;18.040;2022-11-18T08:14:07;6.25;;;1.52;;
50379;SDS011;37474;59.468;18.040;2022-11-18T08:16:35;3.22;;;1.20;;
50379;SDS011;37474;59.468;18.040;2022-11-18T08:19:03;2.77;;;1.20;;
50379;SDS011;37474;59.468;18.040;2022-11-18T08:21:34;1.95;;;1.23;;
50379;SDS011;37474;59.468;18.040;2022-11-18T08:24:02;3.10;;;1.13;;
50379;SDS011;37474;59.468;18.040;2022-11-18T08:26:30;3.47;;;1.43;;
50379;SDS011;37474;59.468;18.040;2022-11-18T08:29:02;2.58;;;1.38;;
50379;SDS011;37474;59.468;18.040;2022-11-18T08:31:30;3.42;;;1.83;;
50379;SDS011;37474;59.468;18.040;2022-11-18T08:33:58;3.33;;;1.37;;
50379;SDS011;37474;59.468;18.040;2022-11-18T08:36:34;3.20;;;1.43;;
50379;SDS011;37474;59.468;18.040;2022-11-18T08:39:05;3.37;;;1.40;;
50379;SDS011;37474;59.468;18.040;2022-11-18T08:41:35;2.08;;;1.33;;
50379;SDS011;37474;59.468;18.040;2022-11-18T08:46:33;3.40;;;1.43;;
50379;SDS011;37474;59.468;18.040;2022-11-18T08:49:01;3.33;;;1.50;;
50379;SDS011;37474;59.468;18.040;2022-11-18T08:51:29;6.33;;;1.50;;
50379;SDS011;37474;59.468;18.040;2022-11-18T08:53:59;3.97;;;1.50;;
50379;SDS011;37474;59.468;18.040;2022-11-18T08:56:27;2.50;;;1.48;;
50379;SDS011;37474;59.468;18.040;2022-11-18T08:58:55;1.67;;;1.23;;
50379;SDS011;37474;59.468;18.040;2022-11-18T09:01:23;5.60;;;1.43;;
50379;SDS011;37474;59.468;18.040;2022-11-18T09:03:55;2.67;;;1.63;;
50379;SDS011;37474;59.468;18.040;2022-11-18T09:06:23;3.87;;;1.60;;
50379;SDS011;37474;59.468;18.040;2022-11-18T09:08:52;4.87;;;1.70;;
50379;SDS011;37474;59.468;18.040;2022-11-18T09:11:24;4.13;;;1.60;;
50379;SDS011;37474;59.468;18.040;2022-11-18T09:13:52;4.77;;;1.60;;
50379;SDS011;37474;59.468;18.040;2022-11-18T09:16:44;3.27;;;1.40;;
50379;SDS011;37474;59.468;18.040;2022-11-18T09:19:13;3.80;;;1.30;;
50379;SDS011;37474;59.468;18.040;2022-11-18T09:22:05;3.60;;;1.40;;
50379;SDS011;37474;59.468;18.040;2022-11-18T09:24:34;5.20;;;1.63;;
50379;SDS011;37474;59.468;18.040;2022-11-18T09:27:06;3.43;;;1.70;;
50379;SDS011;37474;59.468;18.040;2022-11-18T09:29:42;2.07;;;1.30;;
50379;SDS011;37474;59.468;18.040;2022-11-18T09:32:12;5.82;;;1.65;;
50379;SDS011;37474;59.468;18.040;2022-11-18T09:34:40;5.30;;;1.60;;
50379;SDS011;37474;59.468;18.040;2022-11-18T09:37:07;3.87;;;1.80;;
50379;SDS011;37474;59.468;18.040;2022-11-18T09:39:39;2.90;;;1.60;;
50379;SDS011;37474;59.468;18.040;2022-11-18T09:42:15;4.38;;;1.42;;
50379;SDS011;37474;59.468;18.040;2022-11-18T09:44:58;2.97;;;1.60;;
50379;SDS011;37474;59.468;18.040;2022-11-18T09:47:38;4.33;;;2.40;;
50379;SDS011;37474;59.468;18.040;2022-11-18T09:50:11;2.58;;;1.55;;
50379;SDS011;37474;59.468;18.040;2022-11-18T09:53:03;3.03;;;1.40;;
50379;SDS011;37474;59.468;18.040;2022-11-18T09:55:38;2.87;;;1.40;;
50379;SDS011;37474;59.468;18.040;2022-11-18T09:58:11;2.80;;;1.33;;
50379;SDS011;37474;59.468;18.040;2022-11-18T10:00:47;3.17;;;1.70;;
50379;SDS011;37474;59.468;18.040;2022-11-18T10:03:16;8.80;;;1.80;;
50379;SDS011;37474;59.468;18.040;2022-11-18T10:05:55;2.33;;;1.30;;
50379;SDS011;37474;59.468;18.040;2022-11-18T10:08:26;3.10;;;1.30;;
50379;SDS011;37474;59.468;18.040;2022-11-18T10:11:02;3.83;;;1.73;;
50379;SDS011;37474;59.468;18.040;2022-11-18T10:13:38;2.97;;;1.20;;
50379;SDS011;37474;59.468;18.040;2022-11-18T10:16:23;5.20;;;1.67;;
50379;SDS011;37474;59.468;18.040;2022-11-18T10:19:00;3.07;;;1.10;;
50379;SDS011;37474;59.468;18.040;2022-11-18T10:21:41;3.30;;;1.20;;
50379;SDS011;37474;59.468;18.040;2022-11-18T10:26:53;4.13;;;1.27;;
50379;SDS011;37474;59.468;18.040;2022-11-18T10:29:23;2.93;;;1.30;;
50379;SDS011;37474;59.468;18.040;2022-11-18T10:31:57;1.67;;;1.37;;
50379;SDS011;37474;59.468;18.040;2022-11-18T10:34:30;1.27;;;1.00;;
50379;SDS011;37474;59.468;18.040;2022-11-18T10:37:01;1.30;;;0.87;;
50379;SDS011;37474;59.468;18.040;2022-11-18T10:39:32;2.33;;;1.10;;
50379;SDS011;37474;59.468;18.040;2022-11-18T10:42:00;1.97;;;0.97;;
50379;SDS011;37474;59.468;18.040;2022-11-18T10:44:37;2.10;;;1.07;;
50379;SDS011;37474;59.468;18.040;2022-11-18T10:47:16;3.47;;;1.20;;
50379;SDS011;37474;59.468;18.040;2022-11-18T10:49:52;1.63;;;1.00;;
50379;SDS011;37474;59.468;18.040;2022-11-18T10:52:22;1.40;;;0.90;;
50379;SDS011;37474;59.468;18.040;2022-11-18T10:55:03;1.33;;;0.90;;
50379;SDS011;37474;59.468;18.040;2022-11-18T10:57:35;3.13;;;1.00;;
50379;SDS011;37474;59.468;18.040;2022-11-18T11:03:25;1.07;;;0.80;;
50379;SDS011;37474;59.468;18.040;2022-11-18T11:09:00;2.60;;;0.80;;
50379;SDS011;37474;59.468;18.040;2022-11-18T11:11:40;3.03;;;0.80;;
50379;SDS011;37474;59.468;18.040;2022-11-18T11:14:22;3.00;;;1.00;;
50379;SDS011;37474;59.468;18.040;2022-11-18T11:16:58;2.47;;;0.77;;
50379;SDS011;37474;59.468;18.040;2022-11-18T11:19:34;2.13;;;0.87;;
50379;SDS011;37474;59.468;18.040;2022-11-18T11:22:14;1.70;;;1.00;;
50379;SDS011;37474;59.468;18.040;2022-11-18T11:24:42;2.20;;;1.00;;
50379;SDS011;37474;59.468;18.040;2022-11-18T11:27:16;1.83;;;0.60;;
50379;SDS011;37474;59.468;18.040;2022-11-18T11:30:17;1.27;;;1.07;;
50379;SDS011;37474;59.468;18.040;2022-11-18T11:33:02;1.80;;;0.60;;
50379;SDS011;37474;59.468;18.040;2022-11-18T11:35:44;2.50;;;0.70;;
50379;SDS011;37474;59.468;18.040;2022-11-18T11:38:16;2.57;;;0.60;;
50379;SDS011;37474;59.468;18.040;2022-11-18T11:44:21;0.70;;;0.60;;
50379;SDS011;37474;59.468;18.040;2022-11-18T11:47:01;2.63;;;0.73;;
50379;SDS011;37474;59.468;18.040;2022-11-18T11:50:00;0.90;;;0.60;;
50379;SDS011;37474;59.468;18.040;2022-11-18T11:52:37;1.03;;;0.50;;
50379;SDS011;37474;59.468;18.040;2022-11-18T11:57:59;1.63;;;0.67;;
50379;SDS011;37474;59.468;18.040;2022-11-18T12:00:43;0.77;;;0.40;;
50379;SDS011;37474;59.468;18.040;2022-11-18T12:03:19;2.27;;;0.70;;
50379;SDS011;37474;59.468;18.040;2022-11-18T12:06:06;1.60;;;1.00;;
50379;SDS011;37474;59.468;18.040;2022-11-18T12:08:37;2.93;;;0.80;;
50379;SDS011;37474;59.468;18.040;2022-11-18T12:11:19;0.75;;;0.73;;
50379;SDS011;37474;59.468;18.040;2022-11-18T12:13:55;0.60;;;0.50;;
50379;SDS011;37474;59.468;18.040;2022-11-18T12:16:32;1.30;;;0.60;;
50379;SDS011;37474;59.468;18.040;2022-11-18T12:19:06;1.87;;;0.70;;
50379;SDS011;37474;59.468;18.040;2022-11-18T12:21:56;2.00;;;0.70;;
50379;SDS011;37474;59.468;18.040;2022-11-18T12:24:31;1.33;;;0.70;;
50379;SDS011;37474;59.468;18.040;2022-11-18T12:27:09;2.17;;;0.70;;
50379;SDS011;37474;59.468;18.040;2022-11-18T12:29:43;1.90;;;0.70;;
50379;SDS011;37474;59.468;18.040;2022-11-18T12:32:25;1.00;;;0.63;;
50379;SDS011;37474;59.468;18.040;2022-11-18T12:34:58;2.57;;;0.80;;
50379;SDS011;37474;59.468;18.040;2022-11-18T12:37:41;0.63;;;0.53;;
50379;SDS011;37474;59.468;18.040;2022-11-18T12:40:32;0.93;;;0.50;;
50379;SDS011;37474;59.468;18.040;2022-11-18T12:44:03;3.23;;;0.70;;
50379;SDS011;37474;59.468;18.040;2022-11-18T12:55:34;4.00;;;1.50;;
50379;SDS011;37474;59.468;18.040;2022-11-18T12:58:19;0.97;;;0.53;;
50379;SDS011;37474;59.468;18.040;2022-11-18T13:01:02;2.20;;;0.77;;
50379;SDS011;37474;59.468;18.040;2022-11-18T13:03:31;1.60;;;0.88;;
50379;SDS011;37474;59.468;18.040;2022-11-18T13:06:03;0.90;;;0.60;;
50379;SDS011;37474;59.468;18.040;2022-11-18T13:08:38;2.50;;;0.90;;
50379;SDS011;37474;59.468;18.040;2022-11-18T13:11:09;1.00;;;0.60;;
50379;SDS011;37474;59.468;18.040;2022-11-18T13:14:00;1.00;;;0.57;;
50379;SDS011;37474;59.468;18.040;2022-11-18T13:16:48;0.57;;;0.57;;
50379;SDS011;37474;59.468;18.040;2022-11-18T13:19:34;2.93;;;0.70;;
50379;SDS011;37474;59.468;18.040;2022-11-18T13:22:12;0.60;;;0.50;;
50379;SDS011;37474;59.468;18.040;2022-11-18T13:25:01;2.90;;;0.87;;
50379;SDS011;37474;59.468;18.040;2022-11-18T13:27:35;1.07;;;0.50;;
50379;SDS011;37474;59.468;18.040;2022-11-18T13:30:13;1.30;;;0.60;;
50379;SDS011;37474;59.468;18.040;2022-11-18T13:32:44;1.17;;;0.57;;
50379;SDS011;37474;59.468;18.040;2022-11-18T13:35:15;2.37;;;0.80;;
50379;SDS011;37474;59.468;18.040;2022-11-18T13:37:50;1.13;;;0.80;;
50379;SDS011;37474;59.468;18.040;2022-11-18T13:40:20;3.70;;;0.50;;
50379;SDS011;37474;59.468;18.040;2022-11-18T13:42:53;1.10;;;0.70;;
50379;SDS011;37474;59.468;18.040;2022-11-18T13:45:22;1.77;;;0.80;;
50379;SDS011;37474;59.468;18.040;2022-11-18T13:47:54;1.10;;;0.60;;
50379;SDS011;37474;59.468;18.040;2022-11-18T13:50:27;2.67;;;0.90;;
50379;SDS011;37474;59.468;18.040;2022-11-18T13:53:05;1.67;;;0.67;;
50379;SDS011;37474;59.468;18.040;2022-11-18T13:55:53;1.38;;;0.70;;
50379;SDS011;37474;59.468;18.040;2022-11-18T13:58:35;0.77;;;0.60;;
50379;SDS011;37474;59.468;18.040;2022-11-18T14:01:25;1.53;;;0.70;;
50379;SDS011;37474;59.468;18.040;2022-11-18T14:03:59;1.50;;;0.87;;
50379;SDS011;37474;59.468;18.040;2022-11-18T14:06:28;1.40;;;0.63;;
50379;SDS011;37474;59.468;18.040;2022-11-18T14:09:06;2.30;;;0.70;;
50379;SDS011;37474;59.468;18.040;2022-11-18T14:11:57;1.53;;;0.70;;
50379;SDS011;37474;59.468;18.040;2022-11-18T14:14:30;2.43;;;0.70;;
50379;SDS011;37474;59.468;18.040;2022-11-18T14:17:04;1.37;;;0.63;;
50379;SDS011;37474;59.468;18.040;2022-11-18T14:19:45;1.20;;;0.63;;
50379;SDS011;37474;59.468;18.040;2022-11-18T14:22:15;0.97;;;0.73;;
50379;SDS011;37474;59.468;18.040;2022-11-18T14:24:52;3.67;;;1.17;;
50379;SDS011;37474;59.468;18.040;2022-11-18T14:27:26;1.13;;;0.80;;
50379;SDS011;37474;59.468;18.040;2022-11-18T14:33:12;5.13;;;1.17;;
50379;SDS011;37474;59.468;18.040;2022-11-18T14:35:46;1.80;;;0.90;;
50379;SDS011;37474;59.468;18.040;2022-11-18T14:38:18;1.63;;;0.80;;
50379;SDS011;37474;59.468;18.040;2022-11-18T14:43:41;8.43;;;4.00;;
50379;SDS011;37474;59.468;18.040;2022-11-18T14:46:15;2.58;;;1.00;;
50379;SDS011;37474;59.468;18.040;2022-11-18T14:48:48;3.63;;;1.10;;
50379;SDS011;37474;59.468;18.040;2022-11-18T14:51:18;3.63;;;1.40;;
50379;SDS011;37474;59.468;18.040;2022-11-18T14:53:46;1.70;;;1.15;;
50379;SDS011;37474;59.468;18.040;2022-11-18T14:56:16;2.67;;;1.07;;
50379;SDS011;37474;59.468;18.040;2022-11-18T14:58:51;1.70;;;1.10;;
50379;SDS011;37474;59.468;18.040;2022-11-18T15:01:22;1.77;;;0.93;;
50379;SDS011;37474;59.468;18.040;2022-11-18T15:03:56;3.77;;;1.37;;
50379;SDS011;37474;59.468;18.040;2022-11-18T15:06:25;4.55;;;1.10;;
50379;SDS011;37474;59.468;18.040;2022-11-18T15:08:54;5.13;;;1.40;;
50379;SDS011;37474;59.468;18.040;2022-11-18T15:11:22;2.57;;;1.30;;
50379;SDS011;37474;59.468;18.040;2022-11-18T15:13:50;2.17;;;1.50;;
50379;SDS011;37474;59.468;18.040;2022-11-18T15:16:18;2.23;;;1.40;;
50379;SDS011;37474;59.468;18.040;2022-11-18T15:18:49;4.40;;;1.40;;
50379;SDS011;37474;59.468;18.040;2022-11-18T15:21:19;1.07;;;0.97;;
50379;SDS011;37474;59.468;18.040;2022-11-18T15:23:47;3.23;;;1.40;;
50379;SDS011;37474;59.468;18.040;2022-11-18T15:26:16;2.23;;;1.60;;
50379;SDS011;37474;59.468;18.040;2022-11-18T15:28:46;4.57;;;1.50;;
50379;SDS011;37474;59.468;18.040;2022-11-18T15:31:15;2.07;;;1.40;;
50379;SDS011;37474;59.468;18.040;2022-11-18T15:33:44;2.90;;;1.27;;
50379;SDS011;37474;59.468;18.040;2022-11-18T15:36:17;2.90;;;1.13;;
50379;SDS011;37474;59.468;18.040;2022-11-18T15:38:46;3.40;;;1.00;;
50379;SDS011;37474;59.468;18.040;2022-11-18T15:41:15;2.63;;;1.30;;
50379;SDS011;37474;59.468;18.040;2022-11-18T15:43:46;2.77;;;1.60;;
50379;SDS011;37474;59.468;18.040;2022-11-18T15:46:15;3.00;;;1.10;;
50379;SDS011;37474;59.468;18.040;2022-11-18T15:48:44;2.87;;;1.47;;
50379;SDS011;37474;59.468;18.040;2022-11-18T15:51:16;6.23;;;1.63;;
50379;SDS011;37474;59.468;18.040;2022-11-18T15:53:44;5.10;;;1.75;;
50379;SDS011;37474;59.468;18.040;2022-11-18T15:56:13;4.23;;;1.50;;